»·PEaware :: N800DW 44A-KMHV

N800DW :: 44A-KMHV

FLIGHT INFORMATION

Flight Status: Arrived
Operator: Privately registered:
United States
More flights under this callsign
Pilot: Scott L. (17677)
Aircraft: BEECH AIRCRAFT BARON
(BE58)
More flights by this aircraft type
Origin: 44A Rolle
United States
Destination: KMHV Mojave
United States
More flights between these airports :: More routes between these airports
Route: HEEDS V458 IPL V137 PMD
File this flight plan on PilotEdge
Remarks:
Altitude:
(Current/Filed)
14,000ft
Speed:
(Current/Filed)
185kts
Departed: 28-Jun-19 08:01 AM
Arrived: 28-Jun-19 09:30 AM
Distance/Time
Traveled:
230nm/1:28
Distance/Time
To Go:
Arrived

Flight Plot

Page will automatically refresh every two minutes.

Flight plan parsing failed; only flown route is shown


Map Options




Map Legend


Flown Route
Filed Route
Departure Airport
Arrival Airport
Navaid (VOR, NDB)
Fix

Horizontal Profiles

Position Reports

Time Latitude Longitude Heading Altitude Ground
Speed
28-Jun-19 07:51 32.514799 -114.698247 2 167ft 0kts
28-Jun-19 07:52 32.514799 -114.698247 2 167ft 0kts
28-Jun-19 07:53 32.514799 -114.698247 2 167ft 0kts
28-Jun-19 07:54 32.514799 -114.698247 2 167ft 0kts
28-Jun-19 07:55 32.514799 -114.698247 2 167ft 0kts
28-Jun-19 07:56 32.514799 -114.698247 2 167ft 0kts
28-Jun-19 07:57 32.514799 -114.698247 2 167ft 0kts
28-Jun-19 07:58 32.514799 -114.698247 2 167ft 0kts
28-Jun-19 07:59 32.514896 -114.698243 0 167ft 15kts
28-Jun-19 08:00 32.540828 -114.703361 339 946ft 134kts
28-Jun-19 08:01 32.579922 -114.719651 341 1879ft 151kts
28-Jun-19 08:02 32.619906 -114.736369 341 2869ft 151kts
28-Jun-19 08:03 32.648224 -114.770389 300 3835ft 153kts
28-Jun-19 08:04 32.669269 -114.815013 300 4759ft 155kts
28-Jun-19 08:05 32.690493 -114.859841 299 5624ft 157kts
28-Jun-19 08:06 32.712053 -114.905423 298 6452ft 158kts
28-Jun-19 08:07 32.733593 -114.951028 296 7239ft 158kts
28-Jun-19 08:08 32.755145 -114.996729 295 7986ft 158kts
28-Jun-19 08:09 32.759052 -115.046270 262 8691ft 149kts
28-Jun-19 08:10 32.758393 -115.095112 260 9375ft 145kts
28-Jun-19 08:11 32.757427 -115.142443 259 10024ft 141kts
28-Jun-19 08:12 32.756414 -115.188494 258 10645ft 136kts
28-Jun-19 08:13 32.755407 -115.232619 257 11222ft 131kts
28-Jun-19 08:14 32.754414 -115.275448 257 11754ft 128kts
28-Jun-19 08:15 32.753443 -115.317250 257 12229ft 125kts
28-Jun-19 08:16 32.752451 -115.358758 257 12659ft 125kts
28-Jun-19 08:17 32.751461 -115.400037 257 13058ft 125kts
28-Jun-19 08:18 32.750462 -115.441251 257 13430ft 124kts
28-Jun-19 08:19 32.749452 -115.482398 257 13777ft 124kts
28-Jun-19 08:20 32.774149 -115.512377 338 14026ft 169kts
28-Jun-19 08:21 32.823351 -115.524085 342 14021ft 188kts
28-Jun-19 08:22 32.875924 -115.535183 343 14020ft 193kts
28-Jun-19 08:23 32.923632 -115.558162 316 14021ft 182kts
28-Jun-19 08:24 32.964525 -115.592302 315 14022ft 182kts
28-Jun-19 08:25 33.005811 -115.627316 316 14023ft 182kts
28-Jun-19 08:26 33.047400 -115.662637 317 14027ft 182kts
28-Jun-19 08:27 33.088715 -115.697766 318 14028ft 182kts
28-Jun-19 08:28 33.129449 -115.732435 319 14022ft 180kts
28-Jun-19 08:29 33.170178 -115.767118 318 14021ft 179kts
28-Jun-19 08:30 33.210751 -115.801739 318 14018ft 179kts
28-Jun-19 08:31 33.251324 -115.836403 318 14014ft 179kts
28-Jun-19 08:32 33.291889 -115.871099 318 14009ft 179kts
28-Jun-19 08:33 33.332461 -115.905843 318 14006ft 179kts
28-Jun-19 08:34 33.372941 -115.940548 318 14005ft 179kts
28-Jun-19 08:35 33.413513 -115.975375 318 14005ft 179kts
28-Jun-19 08:36 33.453957 -116.010131 318 14005ft 179kts
28-Jun-19 08:37 33.494219 -116.044772 318 14051ft 177kts
28-Jun-19 08:38 33.534545 -116.079510 318 14051ft 178kts
28-Jun-19 08:39 33.574931 -116.114336 318 14051ft 179kts
28-Jun-19 08:40 33.615353 -116.149236 318 14052ft 179kts
28-Jun-19 08:41 33.652806 -116.187809 311 14053ft 177kts
28-Jun-19 08:42 33.688984 -116.227913 311 14058ft 177kts
28-Jun-19 08:43 33.725092 -116.268082 311 14066ft 176kts
28-Jun-19 08:44 33.761225 -116.308339 311 14079ft 176kts
28-Jun-19 08:45 33.797329 -116.348613 311 14087ft 177kts
28-Jun-19 08:46 33.833657 -116.389185 311 14095ft 177kts
28-Jun-19 08:47 33.869052 -116.430370 298 14099ft 173kts
28-Jun-19 08:48 33.893931 -116.480307 294 14098ft 172kts
28-Jun-19 08:49 33.918248 -116.531207 294 14007ft 175kts
28-Jun-19 08:50 33.942521 -116.582245 293 14006ft 173kts
28-Jun-19 08:51 33.966526 -116.632845 293 14007ft 172kts
28-Jun-19 08:52 33.990370 -116.683169 293 14023ft 172kts
28-Jun-19 08:53 34.014112 -116.733352 293 14043ft 172kts
28-Jun-19 08:54 34.037845 -116.783587 293 14064ft 172kts
28-Jun-19 08:55 34.061714 -116.834182 293 14086ft 172kts
28-Jun-19 08:56 34.085530 -116.884737 293 14108ft 173kts
28-Jun-19 08:57 34.109557 -116.935805 293 14105ft 173kts
28-Jun-19 08:58 34.133256 -116.986252 293 14105ft 172kts
28-Jun-19 08:59 34.156848 -117.036550 292 14105ft 171kts
28-Jun-19 09:00 34.180183 -117.086369 292 14105ft 170kts
28-Jun-19 09:01 34.203507 -117.136238 292 14105ft 170kts
28-Jun-19 09:02 34.226763 -117.186034 292 14105ft 169kts
28-Jun-19 09:03 34.249998 -117.235852 292 14105ft 169kts
28-Jun-19 09:04 34.273224 -117.285743 292 14037ft 173kts
28-Jun-19 09:05 34.296868 -117.336548 292 14006ft 171kts
28-Jun-19 09:06 34.320292 -117.386985 292 14008ft 170kts
28-Jun-19 09:07 34.343667 -117.437397 292 14002ft 170kts
28-Jun-19 09:08 34.366893 -117.487554 292 14003ft 170kts
28-Jun-19 09:09 34.390137 -117.537821 292 14004ft 170kts
28-Jun-19 09:10 34.413368 -117.588133 292 14004ft 171kts
28-Jun-19 09:11 34.436620 -117.638564 292 13993ft 171kts
28-Jun-19 09:12 34.459964 -117.689267 292 13983ft 171kts
28-Jun-19 09:13 34.483350 -117.740133 292 13976ft 171kts
28-Jun-19 09:14 34.506561 -117.790692 292 13974ft 171kts
28-Jun-19 09:15 34.529695 -117.841161 292 13972ft 170kts
28-Jun-19 09:16 34.553080 -117.892314 292 13788ft 179kts
28-Jun-19 09:17 34.577676 -117.946087 293 13448ft 184kts
28-Jun-19 09:18 34.602926 -118.001382 293 12973ft 190kts
28-Jun-19 09:19 34.627023 -118.052025 316 12220ft 166kts
28-Jun-19 09:20 34.668241 -118.060213 344 10932ft 145kts
28-Jun-19 09:21 34.713236 -118.070476 345 9662ft 195kts
28-Jun-19 09:22 34.769007 -118.083284 345 8855ft 207kts
28-Jun-19 09:23 34.826689 -118.089897 0 8100ft 213kts
28-Jun-19 09:24 34.884920 -118.086759 0 7058ft 200kts
28-Jun-19 09:25 34.940449 -118.085497 358 5578ft 204kts
28-Jun-19 09:26 34.996141 -118.094356 342 4175ft 198kts
28-Jun-19 09:27 35.040855 -118.116474 322 3271ft 135kts
28-Jun-19 09:28 35.059149 -118.142909 264 2760ft 80kts
28-Jun-19 09:29 35.059063 -118.157222 242 2766ft 23kts
28-Jun-19 09:30 35.057215 -118.155751 89 2759ft 0kts
28-Jun-19 09:31 35.057215 -118.155751 89 2759ft 0kts
28-Jun-19 09:32 35.057215 -118.155751 89 2759ft 0kts
28-Jun-19 09:33 35.057215 -118.155751 89 2759ft 0kts
28-Jun-19 09:34 35.057215 -118.155751 89 2759ft 0kts
28-Jun-19 09:35 35.057215 -118.155751 89 2759ft 0kts
28-Jun-19 09:36 35.057215 -118.155751 89 2759ft 0kts
28-Jun-19 09:37 35.057215 -118.155751 89 2759ft 0kts
28-Jun-19 09:38 35.057215 -118.155751 89 2759ft 0kts
28-Jun-19 09:39 35.057215 -118.155751 89 2759ft 0kts
28-Jun-19 09:41 35.057215 -118.155751 89 2759ft 0kts
28-Jun-19 09:42 35.057215 -118.155751 89 2759ft 0kts
28-Jun-19 09:43 35.057215 -118.155751 89 2759ft 0kts
28-Jun-19 09:44 35.057215 -118.155751 89 2759ft 0kts

Navigation Log

Ident Type
Flight plan parsing failed, navigation log unavailable